Time;durP1;ratioP1;P1;durP2;ratioP2;P2;SDS_P1;SDS_P2;PMS_P1;PMS_P2;Temp;Humidity;BMP_temperature;BMP_pressure;BME280_temperature;BME280_humidity;BME280_pressure;Samples;Min_cycle;Max_cycle;Signal;HPM_P1;HPM_P2
2021/12/31 00:01:18;;;;;;;17.27;3.50;;;12.80;99.90;;;;;;5140388;27;20417;-85
2021/12/31 00:04:03;;;;;;;18.15;4.22;;;12.80;99.90;;;;;;5156368;27;20118;-89
2021/12/31 00:06:47;;;;;;;13.35;3.72;;;12.80;99.90;;;;;;5156291;27;20079;-91
2021/12/31 00:09:31;;;;;;;;;;;12.80;99.90;;;;;;5155740;27;20050;-92
2021/12/31 00:12:15;;;;;;;17.25;3.25;;;12.80;99.90;;;;;;5155859;27;20012;-89
2021/12/31 00:14:59;;;;;;;;;;;12.80;99.90;;;;;;5140818;27;20037;-91
2021/12/31 00:17:44;;;;;;;16.60;3.13;;;12.80;99.90;;;;;;5140224;27;19971;-92
2021/12/31 00:20:32;;;;;;;13.95;2.90;;;12.80;99.90;;;;;;5139698;27;20091;-90
2021/12/31 00:23:20;;;;;;;8.45;3.00;;;12.80;99.90;;;;;;5140532;27;20042;-88
2021/12/31 00:26:04;;;;;;;12.05;2.20;;;12.80;99.90;;;;;;5126384;27;20038;-90
2021/12/31 00:28:48;;;;;;;12.60;2.60;;;12.80;99.90;;;;;;5155537;27;20046;-90
2021/12/31 00:31:31;;;;;;;;;;;12.80;99.90;;;;;;5139734;27;20409;-92
2021/12/31 00:34:16;;;;;;;13.35;2.97;;;12.80;99.90;;;;;;5139824;27;19970;-90
2021/12/31 00:37:00;;;;;;;16.27;3.88;;;12.80;99.90;;;;;;5155546;27;20159;-90
2021/12/31 00:39:44;;;;;;;19.13;3.03;;;12.80;99.90;;;;;;5155139;27;20045;-90
2021/12/31 00:42:28;;;;;;;17.33;3.10;;;12.80;99.90;;;;;;5157943;27;20482;-90
2021/12/31 00:45:13;;;;;;;;;;;12.70;99.90;;;;;;5140256;27;20034;-90
2021/12/31 00:47:57;;;;;;;17.17;3.58;;;12.70;99.90;;;;;;5155239;27;19976;-90
2021/12/31 00:50:42;;;;;;;11.98;2.78;;;12.70;99.90;;;;;;5155289;27;20567;-90
2021/12/31 00:53:26;;;;;;;20.33;3.90;;;12.70;99.90;;;;;;5154887;27;20129;-90
2021/12/31 00:56:11;;;;;;;15.23;3.85;;;12.70;99.90;;;;;;5139938;27;20057;-91
2021/12/31 00:58:55;;;;;;;9.85;2.97;;;12.70;99.90;;;;;;5125000;27;20045;-90
2021/12/31 01:01:39;;;;;;;16.17;3.42;;;12.70;99.90;;;;;;5154437;27;20126;-90
2021/12/31 01:04:24;;;;;;;15.15;3.42;;;12.60;99.90;;;;;;5125556;27;20443;-90
2021/12/31 01:07:08;;;;;;;15.43;3.47;;;12.60;99.90;;;;;;5155329;27;20033;-89
2021/12/31 01:09:54;;;;;;;17.83;4.35;;;12.60;99.90;;;;;;5140257;27;20081;-89
2021/12/31 01:12:39;;;;;;;14.55;3.95;;;12.60;99.90;;;;;;5160450;27;20041;-90
2021/12/31 01:21:36;;;;;;;15.40;3.92;;;12.60;99.90;;;;;;5161180;27;20053;-89
2021/12/31 01:24:25;;;;;;;12.30;3.65;;;12.60;99.90;;;;;;5157535;27;20163;-88
2021/12/31 01:27:11;;;;;;;16.25;3.65;;;12.60;99.90;;;;;;5139915;27;20053;-89
2021/12/31 01:29:55;;;;;;;14.43;4.57;;;12.50;99.90;;;;;;5139027;27;20054;-90
2021/12/31 01:32:41;;;;;;;19.65;3.65;;;12.50;99.90;;;;;;5153913;27;20041;-88
2021/12/31 01:35:26;;;;;;;19.10;5.10;;;12.50;99.90;;;;;;5154497;27;20502;-89
2021/12/31 01:38:10;;;;;;;17.27;3.88;;;12.50;99.90;;;;;;5154447;27;20122;-89
2021/12/31 01:40:54;;;;;;;18.63;4.20;;;12.50;99.90;;;;;;5153866;27;20084;-90
2021/12/31 01:43:39;;;;;;;19.67;3.97;;;12.50;99.90;;;;;;5153656;27;20163;-89
2021/12/31 01:46:24;;;;;;;16.60;4.32;;;12.50;99.90;;;;;;5133640;28;20034;-90
2021/12/31 01:49:18;;;;;;;19.88;4.28;;;12.50;99.90;;;;;;5118072;28;20054;-89
2021/12/31 01:52:04;;;;;;;18.95;3.58;;;12.50;99.90;;;;;;5133609;28;20042;-88
2021/12/31 01:54:49;;;;;;;14.73;4.55;;;12.50;99.90;;;;;;5132887;28;20123;-88
2021/12/31 01:57:34;;;;;;;14.85;3.53;;;12.40;99.90;;;;;;5132985;28;20047;-87
2021/12/31 02:00:18;;;;;;;18.70;4.90;;;12.50;99.90;;;;;;5103595;28;20405;-88
2021/12/31 02:03:05;;;;;;;16.45;3.78;;;12.50;99.90;;;;;;5133423;27;20054;-89
2021/12/31 02:05:49;;;;;;;17.00;4.10;;;12.50;99.90;;;;;;5136639;27;20160;-89
2021/12/31 02:08:33;;;;;;;16.73;4.15;;;12.40;99.90;;;;;;5137274;27;20043;-88
2021/12/31 02:11:18;;;;;;;16.63;3.83;;;12.40;99.90;;;;;;5121756;27;20034;-88
2021/12/31 02:14:03;;;;;;;11.88;3.50;;;12.40;99.90;;;;;;5137375;27;20089;-89
2021/12/31 02:16:47;;;;;;;9.98;2.35;;;12.40;99.90;;;;;;5136778;27;20451;-89
2021/12/31 02:19:31;;;;;;;15.40;3.40;;;12.50;99.90;;;;;;5137196;27;20042;-88
2021/12/31 02:22:15;;;;;;;13.40;4.05;;;12.50;99.90;;;;;;5137122;27;20091;-89
2021/12/31 02:25:01;;;;;;;11.50;3.60;;;12.50;99.90;;;;;;5121103;27;20042;-88
2021/12/31 02:27:45;;;;;;;10.07;3.25;;;12.50;99.90;;;;;;5136461;27;20066;-90
2021/12/31 02:30:29;;;;;;;12.23;3.20;;;12.50;99.90;;;;;;5136893;27;20042;-90
2021/12/31 02:33:14;;;;;;;9.30;3.55;;;12.50;99.90;;;;;;5121651;27;20096;-88
2021/12/31 02:36:00;;;;;;;11.52;2.70;;;12.60;99.90;;;;;;5092146;27;20419;-90
2021/12/31 02:38:44;;;;;;;14.30;2.92;;;12.60;99.90;;;;;;5120814;27;20486;-89
2021/12/31 02:41:29;;;;;;;12.80;3.13;;;12.60;99.90;;;;;;5136865;27;20502;-88
2021/12/31 02:44:13;;;;;;;14.27;2.83;;;12.70;99.90;;;;;;5136764;27;20091;-89
2021/12/31 02:47:02;;;;;;;10.35;3.00;;;12.70;99.90;;;;;;5136228;27;20456;-89
2021/12/31 02:49:48;;;;;;;9.23;2.50;;;12.70;99.90;;;;;;5121240;27;20427;-87
2021/12/31 02:52:32;;;;;;;12.07;3.20;;;12.70;99.90;;;;;;5121378;27;20034;-88
2021/12/31 02:55:17;;;;;;;9.27;2.60;;;12.80;99.90;;;;;;5136510;27;20058;-89
2021/12/31 02:58:03;;;;;;;8.80;2.88;;;12.80;99.90;;;;;;5120371;27;20081;-89
2021/12/31 03:00:48;;;;;;;7.05;2.58;;;12.80;99.90;;;;;;5120357;27;20077;-89
2021/12/31 03:03:34;;;;;;;8.20;2.75;;;12.90;99.90;;;;;;5136356;27;20057;-90
2021/12/31 03:06:19;;;;;;;9.82;3.13;;;12.90;99.90;;;;;;5120811;27;20034;-89
2021/12/31 03:09:03;;;;;;;9.70;2.63;;;12.90;99.90;;;;;;5135633;27;20093;-91
2021/12/31 03:11:47;;;;;;;;;;;12.90;99.90;;;;;;5136143;27;20131;-88
2021/12/31 03:14:31;;;;;;;6.38;2.65;;;13.00;99.90;;;;;;5136070;27;19914;-88
2021/12/31 03:17:16;;;;;;;9.38;2.83;;;13.00;99.90;;;;;;5136325;27;20459;-89
2021/12/31 03:20:12;;;;;;;8.90;2.38;;;13.00;99.90;;;;;;5135592;27;20399;-88
2021/12/31 03:22:56;;;;;;;9.32;2.40;;;13.00;99.90;;;;;;5106999;27;20050;-87
2021/12/31 03:25:41;;;;;;;7.22;3.15;;;13.00;99.90;;;;;;5105960;27;20095;-87
2021/12/31 03:28:25;;;;;;;13.20;3.28;;;13.00;99.90;;;;;;5135702;27;20568;-88
2021/12/31 03:31:09;;;;;;;6.45;2.85;;;13.00;99.90;;;;;;5135290;27;20115;-88
2021/12/31 03:33:54;;;;;;;12.18;2.88;;;13.00;99.90;;;;;;5135316;27;20041;-89
2021/12/31 03:36:38;;;;;;;8.43;2.75;;;13.00;99.90;;;;;;5135681;27;20502;-88
2021/12/31 03:39:22;;;;;;;7.18;2.47;;;13.00;99.90;;;;;;5135645;27;20046;-88
2021/12/31 03:42:07;;;;;;;9.10;3.10;;;13.10;99.90;;;;;;5135165;27;20042;-89
2021/12/31 03:44:51;;;;;;;7.22;2.25;;;13.10;99.90;;;;;;5135225;27;20094;-89
2021/12/31 03:47:35;;;;;;;5.78;2.47;;;13.10;99.90;;;;;;5119872;27;20043;-89
2021/12/31 03:50:20;;;;;;;9.65;2.70;;;13.10;99.90;;;;;;5120042;27;20070;-88
2021/12/31 03:53:04;;;;;;;9.85;2.45;;;13.10;99.90;;;;;;5134872;27;20061;-88
2021/12/31 03:55:49;;;;;;;7.90;2.63;;;13.00;99.90;;;;;;5105204;27;20041;-84
2021/12/31 03:58:33;;;;;;;9.70;2.83;;;13.00;99.90;;;;;;5119781;27;20042;-88
2021/12/31 04:01:17;;;;;;;9.43;2.40;;;13.00;99.90;;;;;;5119711;27;20042;-88
2021/12/31 04:04:01;;;;;;;8.60;2.50;;;13.00;99.90;;;;;;5105030;27;20062;-89
2021/12/31 04:06:45;;;;;;;8.68;2.47;;;13.00;99.90;;;;;;5119487;27;20042;-87
2021/12/31 04:09:30;;;;;;;5.95;2.10;;;13.10;99.90;;;;;;5119433;27;20547;-89
2021/12/31 04:12:14;;;;;;;5.80;2.20;;;13.10;99.90;;;;;;5134480;27;20034;-88
2021/12/31 04:14:58;;;;;;;10.35;2.50;;;13.10;99.90;;;;;;5119001;27;20045;-88
2021/12/31 04:17:42;;;;;;;;;;;13.10;99.90;;;;;;5135252;27;20088;-88
2021/12/31 04:20:39;;;;;;;10.82;2.35;;;13.20;99.90;;;;;;5134814;27;19922;-87
2021/12/31 04:23:35;;;;;;;8.88;2.45;;;13.10;99.90;;;;;;5134778;27;20123;-88
2021/12/31 04:26:19;;;;;;;7.32;2.70;;;13.20;99.90;;;;;;5134502;27;20089;-87
2021/12/31 04:29:03;;;;;;;5.55;1.83;;;13.10;99.90;;;;;;5134092;27;20049;-88
2021/12/31 04:31:47;;;;;;;11.20;2.72;;;13.10;99.90;;;;;;5134518;27;20046;-87
2021/12/31 04:34:32;;;;;;;5.85;2.20;;;13.20;99.90;;;;;;5119100;27;20061;-88
2021/12/31 04:37:16;;;;;;;11.20;2.05;;;13.10;99.90;;;;;;5118655;27;20099;-89
2021/12/31 04:40:01;;;;;;;9.65;2.70;;;13.20;99.90;;;;;;5118519;27;20045;-87
2021/12/31 04:42:46;;;;;;;8.77;2.03;;;13.20;99.90;;;;;;5134318;27;20042;-88
2021/12/31 04:45:31;;;;;;;9.23;2.60;;;13.10;99.90;;;;;;5118909;27;20057;-88
2021/12/31 04:48:15;;;;;;;10.07;3.10;;;13.20;99.90;;;;;;5133728;27;20042;-87
2021/12/31 04:50:59;;;;;;;7.85;2.10;;;13.20;99.90;;;;;;5118244;27;20038;-88
2021/12/31 04:53:43;;;;;;;8.80;2.28;;;13.20;99.90;;;;;;5118247;27;20552;-87
2021/12/31 04:56:27;;;;;;;8.63;2.70;;;13.10;99.90;;;;;;5134166;27;20062;-87
2021/12/31 04:59:11;;;;;;;9.05;2.65;;;13.10;99.90;;;;;;5133670;27;20073;-88
2021/12/31 05:01:56;;;;;;;8.35;2.92;;;13.10;99.90;;;;;;5134232;27;20084;-87
2021/12/31 05:04:40;;;;;;;8.68;3.10;;;13.10;99.90;;;;;;5133957;27;20437;-88
2021/12/31 05:07:23;;;;;;;;;;;13.10;99.90;;;;;;5118881;27;20514;-87
2021/12/31 05:10:09;;;;;;;11.38;3.42;;;13.10;99.90;;;;;;5133591;27;19921;-88
2021/12/31 05:12:56;;;;;;;7.20;3.75;;;13.00;99.90;;;;;;5133887;27;20038;-88
2021/12/31 05:15:45;;;;;;;8.18;4.13;;;13.00;99.90;;;;;;5133956;27;20038;-88
2021/12/31 05:18:30;;;;;;;9.20;4.20;;;13.10;99.90;;;;;;5104691;27;20041;-85
2021/12/31 05:21:14;;;;;;;10.18;4.05;;;13.00;99.90;;;;;;5103268;27;20035;-87
2021/12/31 05:23:59;;;;;;;10.00;3.72;;;13.00;99.90;;;;;;5133785;27;20037;-87
2021/12/31 05:26:43;;;;;;;;;;;13.00;99.90;;;;;;5134078;27;20060;-88
2021/12/31 05:29:27;;;;;;;9.27;3.85;;;13.00;99.90;;;;;;5133841;27;19971;-87
2021/12/31 05:32:12;;;;;;;9.80;4.22;;;13.00;99.90;;;;;;5117739;28;20042;-87
2021/12/31 05:34:56;;;;;;;7.10;3.75;;;13.00;99.90;;;;;;5133636;28;20070;-88
2021/12/31 05:37:40;;;;;;;7.68;3.70;;;13.00;99.90;;;;;;5133486;28;20506;-87
2021/12/31 05:40:25;;;;;;;8.15;3.40;;;13.00;99.90;;;;;;5136390;27;20092;-87
2021/12/31 05:43:09;;;;;;;6.50;3.53;;;13.00;99.90;;;;;;5121958;27;20038;-86
2021/12/31 05:45:54;;;;;;;9.82;3.10;;;13.00;99.90;;;;;;5138069;27;20045;-87
2021/12/31 05:48:37;;;;;;;;;;;13.00;99.90;;;;;;5138055;27;20155;-86
2021/12/31 05:51:22;;;;;;;7.00;3.17;;;13.00;99.90;;;;;;5137340;27;19914;-87
2021/12/31 05:54:06;;;;;;;5.97;2.65;;;13.00;99.90;;;;;;5121487;27;20331;-86
2021/12/31 05:56:51;;;;;;;5.22;2.35;;;13.00;99.90;;;;;;5137517;27;20062;-87
2021/12/31 05:59:35;;;;;;;6.57;2.90;;;13.00;99.90;;;;;;5137749;27;20041;-87
2021/12/31 06:02:19;;;;;;;8.13;2.90;;;13.00;99.90;;;;;;5136999;27;20038;-87
2021/12/31 06:05:04;;;;;;;6.85;2.83;;;13.10;99.90;;;;;;5122084;27;20097;-87
2021/12/31 06:07:48;;;;;;;7.60;2.35;;;13.00;99.90;;;;;;5121790;27;20088;-88
2021/12/31 06:10:33;;;;;;;8.63;2.65;;;13.00;99.90;;;;;;5121939;27;20080;-87
2021/12/31 06:13:17;;;;;;;9.00;3.17;;;13.00;99.90;;;;;;5136914;27;20156;-87
2021/12/31 06:16:02;;;;;;;5.63;2.45;;;13.00;99.90;;;;;;5137330;27;20033;-87
2021/12/31 06:18:46;;;;;;;8.57;3.00;;;13.00;99.90;;;;;;5121560;27;20099;-87
2021/12/31 06:21:38;;;;;;;5.70;2.20;;;13.00;99.90;;;;;;5136689;27;20034;-85
2021/12/31 06:24:23;;;;;;;4.30;2.10;;;13.00;99.90;;;;;;5136647;27;20038;-86
2021/12/31 06:27:07;;;;;;;7.22;2.30;;;13.00;99.90;;;;;;5137038;27;20556;-88
2021/12/31 06:29:52;;;;;;;9.05;2.85;;;13.10;99.90;;;;;;5140873;27;20097;-87
2021/12/31 06:32:37;;;;;;;6.30;2.78;;;13.10;99.90;;;;;;5141622;27;20045;-87
2021/12/31 06:35:22;;;;;;;5.38;2.25;;;13.10;99.90;;;;;;5157166;27;20497;-86
2021/12/31 06:38:06;;;;;;;5.93;2.30;;;13.00;99.90;;;;;;5141636;27;20460;-85
2021/12/31 06:40:51;;;;;;;8.82;3.35;;;13.00;99.90;;;;;;5156028;27;20051;-85
2021/12/31 06:43:35;;;;;;;5.35;2.22;;;13.10;99.90;;;;;;5156223;27;20041;-86
2021/12/31 06:46:20;;;;;;;5.30;2.17;;;13.10;99.90;;;;;;5156407;27;20042;-87
2021/12/31 06:49:04;;;;;;;8.02;2.20;;;13.00;99.90;;;;;;5156696;27;20077;-87
2021/12/31 06:51:48;;;;;;;4.75;1.83;;;13.10;99.90;;;;;;5156624;27;20083;-86
2021/12/31 06:54:33;;;;;;;6.82;2.17;;;13.00;99.90;;;;;;5134973;27;20506;-85
2021/12/31 06:57:16;;;;;;;;;;;13.00;99.90;;;;;;5136331;27;20050;-86
2021/12/31 07:00:03;;;;;;;7.10;2.38;;;13.00;99.90;;;;;;5136675;27;19915;-86
2021/12/31 07:02:47;;;;;;;5.28;1.80;;;12.90;99.90;;;;;;5136449;27;20486;-87
2021/12/31 07:05:32;;;;;;;5.07;2.25;;;12.90;99.90;;;;;;5120822;27;20454;-87
2021/12/31 07:08:16;;;;;;;7.03;2.20;;;12.90;99.90;;;;;;5112808;27;20135;-86
2021/12/31 07:11:00;;;;;;;7.35;2.97;;;12.90;99.90;;;;;;5135321;27;20382;-86
2021/12/31 07:13:45;;;;;;;7.95;2.42;;;12.80;99.90;;;;;;5134965;27;20092;-86
2021/12/31 07:16:29;;;;;;;6.88;2.00;;;12.80;99.90;;;;;;5135553;27;20042;-87
2021/12/31 07:19:13;;;;;;;6.93;2.53;;;12.80;99.90;;;;;;5135522;27;20543;-85
2021/12/31 07:21:57;;;;;;;4.68;2.33;;;12.70;99.90;;;;;;5121368;27;20069;-85
2021/12/31 07:24:41;;;;;;;;;;;12.70;99.90;;;;;;5136771;27;20030;-88
2021/12/31 07:27:28;;;;;;;4.15;1.70;;;12.70;99.90;;;;;;5135433;27;19914;-86
2021/12/31 07:30:16;;;;;;;6.78;2.13;;;12.70;99.90;;;;;;5135582;27;20105;-86
2021/12/31 07:33:00;;;;;;;5.28;2.03;;;12.60;99.90;;;;;;5134414;27;20042;-87
2021/12/31 07:35:52;;;;;;;8.20;2.20;;;12.60;99.90;;;;;;5135329;27;20050;-87
2021/12/31 07:38:39;;;;;;;5.75;2.10;;;12.60;99.90;;;;;;5135134;27;20077;-86
2021/12/31 07:41:23;;;;;;;7.53;2.47;;;12.60;99.90;;;;;;5135470;27;20486;-82
2021/12/31 07:44:07;;;;;;;;;;;12.50;99.90;;;;;;5135973;27;20053;-86
2021/12/31 07:46:52;;;;;;;5.78;2.45;;;12.50;99.90;;;;;;5135478;27;19914;-85
2021/12/31 07:49:35;;;;;;;5.70;2.03;;;12.50;99.90;;;;;;5134403;27;20038;-84
2021/12/31 07:52:20;;;;;;;;;;;12.50;99.90;;;;;;5134970;27;20079;-86
2021/12/31 07:55:05;;;;;;;8.38;2.70;;;12.50;99.90;;;;;;5133825;27;19926;-85
2021/12/31 07:57:49;;;;;;;5.43;2.47;;;12.50;99.90;;;;;;5135176;27;20039;-87
2021/12/31 08:00:34;;;;;;;4.65;2.42;;;12.40;99.90;;;;;;5119292;27;20089;-86
2021/12/31 08:03:19;;;;;;;3.65;1.75;;;12.50;99.90;;;;;;5134367;27;20050;-85
2021/12/31 08:06:03;;;;;;;9.05;3.35;;;12.50;99.90;;;;;;5135179;27;20444;-87
2021/12/31 08:08:47;;;;;;;4.47;2.58;;;12.50;99.90;;;;;;5138047;27;20061;-86
2021/12/31 08:11:34;;;;;;;6.82;2.50;;;12.50;99.90;;;;;;5134996;27;20078;-85
2021/12/31 08:14:18;;;;;;;4.90;2.33;;;12.60;99.90;;;;;;5135071;27;20478;-85
2021/12/31 08:17:02;;;;;;;;;;;12.60;99.90;;;;;;5134322;27;20034;-85
2021/12/31 08:19:46;;;;;;;7.18;2.65;;;12.70;99.90;;;;;;5134398;27;19919;-86
2021/12/31 08:22:31;;;;;;;6.65;2.30;;;12.70;99.90;;;;;;5134389;27;20034;-84
2021/12/31 08:25:15;;;;;;;7.32;2.80;;;12.70;99.90;;;;;;5133857;27;20091;-85
2021/12/31 08:27:59;;;;;;;8.82;2.55;;;12.70;99.90;;;;;;5134480;27;20042;-85
2021/12/31 08:30:43;;;;;;;8.20;2.85;;;12.70;99.90;;;;;;5134110;27;20174;-86
2021/12/31 08:33:28;;;;;;;9.40;2.80;;;12.70;99.90;;;;;;5134131;27;20501;-85
2021/12/31 08:36:12;;;;;;;4.53;2.13;;;12.70;99.90;;;;;;5134540;27;20041;-84
2021/12/31 08:38:57;;;;;;;6.97;2.60;;;12.70;99.90;;;;;;5118947;27;20057;-85
2021/12/31 08:41:41;;;;;;;8.88;2.58;;;12.70;99.90;;;;;;5132930;27;20038;-85
2021/12/31 08:44:25;;;;;;;5.32;2.42;;;12.70;99.90;;;;;;5134175;27;20058;-85
2021/12/31 08:47:09;;;;;;;4.70;2.53;;;12.70;99.90;;;;;;5134301;27;20038;-84
2021/12/31 08:49:54;;;;;;;6.57;2.47;;;12.70;99.90;;;;;;5134108;27;20092;-85
2021/12/31 08:52:39;;;;;;;8.05;2.47;;;12.80;99.90;;;;;;5133933;27;20495;-84
2021/12/31 08:55:23;;;;;;;6.85;2.72;;;12.80;99.90;;;;;;5134150;27;20108;-85
2021/12/31 08:58:08;;;;;;;5.63;2.53;;;12.80;99.90;;;;;;5134263;27;20039;-85
2021/12/31 09:00:52;;;;;;;5.43;2.72;;;12.80;99.90;;;;;;5132482;27;20081;-85
2021/12/31 09:03:36;;;;;;;6.88;2.70;;;12.80;99.90;;;;;;5118124;27;20046;-87
2021/12/31 09:06:21;;;;;;;7.22;2.67;;;12.80;99.90;;;;;;5133107;27;20069;-85
2021/12/31 09:09:06;;;;;;;8.27;3.20;;;12.80;99.90;;;;;;5133965;27;20047;-84
2021/12/31 09:11:50;;;;;;;5.32;2.78;;;12.80;99.90;;;;;;5133384;27;20479;-84
2021/12/31 09:14:34;;;;;;;8.13;2.65;;;12.80;99.90;;;;;;5133292;27;20038;-83
2021/12/31 09:17:21;;;;;;;5.05;2.40;;;12.80;99.90;;;;;;5132072;27;20156;-89
2021/12/31 09:20:06;;;;;;;6.65;3.38;;;12.70;99.90;;;;;;5131533;27;20038;-87
2021/12/31 09:22:50;;;;;;;5.60;2.92;;;12.80;99.90;;;;;;5131749;27;20034;-86
2021/12/31 09:25:34;;;;;;;7.43;3.05;;;12.80;99.90;;;;;;5131817;27;20038;-85
2021/12/31 09:28:19;;;;;;;5.90;3.22;;;12.80;99.90;;;;;;5132695;27;20085;-84
2021/12/31 09:31:05;;;;;;;6.90;2.47;;;12.80;99.90;;;;;;5133104;27;20046;-85
2021/12/31 09:33:49;;;;;;;7.63;2.63;;;12.80;99.90;;;;;;5132197;27;20035;-85
2021/12/31 09:36:33;;;;;;;8.60;2.72;;;12.80;99.90;;;;;;5133045;27;20482;-85
2021/12/31 09:39:18;;;;;;;5.85;2.38;;;12.90;99.90;;;;;;5133400;28;20050;-84
2021/12/31 09:42:05;;;;;;;10.57;3.65;;;12.90;99.90;;;;;;5118051;28;20039;-85
2021/12/31 09:44:49;;;;;;;4.20;2.47;;;12.90;99.90;;;;;;5132969;28;20118;-83
2021/12/31 09:47:33;;;;;;;6.63;2.90;;;12.90;99.90;;;;;;5118147;28;20406;-83
2021/12/31 09:50:20;;;;;;;6.13;2.85;;;12.90;99.90;;;;;;5133481;28;20050;-83
2021/12/31 09:53:05;;;;;;;5.93;2.50;;;12.90;99.90;;;;;;5134360;27;20046;-82
2021/12/31 09:55:55;;;;;;;7.32;2.50;;;12.90;99.90;;;;;;5137987;27;20119;-83
2021/12/31 09:58:40;;;;;;;6.90;2.42;;;12.90;99.90;;;;;;5153610;27;20123;-83
2021/12/31 10:01:24;;;;;;;7.25;4.28;;;12.90;99.90;;;;;;5154277;27;20038;-83
2021/12/31 10:04:08;;;;;;;4.30;2.30;;;12.90;99.90;;;;;;5154217;27;20083;-84
2021/12/31 10:07:10;;;;;;;4.97;2.55;;;12.90;99.90;;;;;;5153555;27;20030;-84
2021/12/31 10:10:11;;;;;;;4.18;2.38;;;12.80;99.90;;;;;;5153482;27;20034;-83
2021/12/31 10:12:59;;;;;;;5.60;2.70;;;12.80;99.90;;;;;;5137816;27;20443;-84
2021/12/31 10:15:47;;;;;;;5.35;2.38;;;12.80;99.90;;;;;;5138120;27;20038;-82
2021/12/31 10:18:38;;;;;;;5.30;2.60;;;12.80;99.90;;;;;;5154013;27;20168;-83
2021/12/31 10:21:38;;;;;;;4.88;2.88;;;12.80;99.90;;;;;;5153880;27;20063;-83
2021/12/31 10:24:25;;;;;;;6.03;2.65;;;12.80;99.90;;;;;;5153900;27;20531;-83
2021/12/31 10:27:09;;;;;;;6.65;3.03;;;12.70;99.90;;;;;;5157758;27;20402;-83
2021/12/31 10:29:53;;;;;;;;;;;12.70;99.90;;;;;;5157109;27;20033;-84
2021/12/31 10:32:40;;;;;;;4.32;2.67;;;12.70;99.90;;;;;;5140762;27;20290;-84
2021/12/31 10:35:25;;;;;;;5.75;2.70;;;12.70;99.90;;;;;;5154299;27;20038;-83
2021/12/31 10:38:11;;;;;;;;;;;12.70;99.90;;;;;;5157653;27;20562;-83
2021/12/31 10:41:00;;;;;;;9.48;2.95;;;12.70;99.90;;;;;;5154639;27;20308;-83
2021/12/31 10:43:45;;;;;;;9.05;2.80;;;12.60;99.90;;;;;;5156385;27;20074;-82
2021/12/31 10:46:29;;;;;;;5.97;3.30;;;12.60;99.90;;;;;;5156878;27;20091;-83
2021/12/31 10:49:14;;;;;;;5.53;3.10;;;12.60;99.90;;;;;;5126597;27;20033;-83
2021/12/31 10:52:04;;;;;;;5.45;3.00;;;12.60;99.90;;;;;;5156369;27;20041;-83
2021/12/31 10:55:02;;;;;;;5.80;2.50;;;12.60;99.90;;;;;;5156563;27;20061;-82
2021/12/31 10:57:48;;;;;;;9.25;3.03;;;12.70;99.90;;;;;;5141034;27;20142;-82
2021/12/31 11:00:35;;;;;;;11.98;5.53;;;12.70;99.90;;;;;;5157183;27;20064;-85
2021/12/31 11:03:20;;;;;;;6.25;3.33;;;12.60;99.90;;;;;;5157008;27;20443;-83
2021/12/31 11:06:07;;;;;;;7.57;3.50;;;12.60;99.90;;;;;;5156493;27;20084;-84
2021/12/31 11:08:54;;;;;;;6.82;3.33;;;12.50;99.90;;;;;;5156431;27;20045;-83
2021/12/31 11:11:47;;;;;;;6.65;3.28;;;12.50;99.90;;;;;;5157018;27;20115;-83
2021/12/31 11:14:31;;;;;;;9.23;3.42;;;12.50;99.90;;;;;;5156625;27;20160;-86
2021/12/31 11:17:17;;;;;;;6.88;3.60;;;12.40;99.90;;;;;;5140815;27;20029;-87
2021/12/31 11:20:04;;;;;;;10.82;4.10;;;12.40;99.90;;;;;;5155722;27;20042;-85
2021/12/31 11:22:49;;;;;;;9.65;4.30;;;12.30;99.90;;;;;;5156058;27;20048;-84
2021/12/31 11:25:33;;;;;;;10.45;3.85;;;12.20;99.90;;;;;;5156171;27;20038;-85
2021/12/31 11:28:25;;;;;;;6.05;3.72;;;12.20;99.90;;;;;;5140580;27;20099;-85
2021/12/31 11:31:18;;;;;;;5.53;3.63;;;12.10;99.90;;;;;;5156155;27;20068;-85
2021/12/31 11:34:06;;;;;;;11.88;4.25;;;12.10;99.90;;;;;;5155970;27;20042;-85
2021/12/31 11:36:51;;;;;;;9.43;3.90;;;12.00;99.90;;;;;;5138110;27;20399;-86
2021/12/31 11:39:38;;;;;;;11.50;4.20;;;12.00;99.90;;;;;;5155303;27;20082;-86
2021/12/31 11:42:22;;;;;;;9.50;4.57;;;12.00;99.90;;;;;;5139682;27;20069;-86
2021/12/31 11:45:07;;;;;;;10.50;4.82;;;12.00;99.90;;;;;;5154775;27;20083;-87
2021/12/31 11:47:52;;;;;;;8.65;3.95;;;11.90;99.90;;;;;;5155245;27;20079;-86
2021/12/31 11:50:36;;;;;;;10.30;4.10;;;11.90;99.90;;;;;;5140014;27;20095;-85
2021/12/31 11:53:21;;;;;;;7.78;4.20;;;11.90;99.90;;;;;;5140302;27;20107;-84
2021/12/31 11:56:05;;;;;;;;;;;11.90;99.90;;;;;;5156003;27;20037;-85
2021/12/31 11:58:49;;;;;;;9.02;4.85;;;11.90;99.90;;;;;;5155980;27;20040;-85
2021/12/31 12:01:39;;;;;;;8.05;5.15;;;11.80;99.90;;;;;;5155951;27;20603;-86
2021/12/31 12:04:30;;;;;;;17.50;5.43;;;11.80;99.90;;;;;;5140342;27;20038;-87
2021/12/31 12:07:46;;;;;;;12.13;6.72;;;11.80;99.90;;;;;;5139909;27;20037;-88
2021/12/31 12:10:37;;;;;;;13.05;6.30;;;11.80;99.90;;;;;;5168340;27;20037;-89
2021/12/31 12:13:25;;;;;;;17.17;6.20;;;11.80;99.90;;;;;;5158386;27;20046;-90
2021/12/31 12:16:09;;;;;;;11.88;5.50;;;11.70;99.90;;;;;;5129594;27;20042;-90
2021/12/31 12:18:54;;;;;;;;;;;11.70;99.90;;;;;;5126356;27;20072;-89
2021/12/31 12:21:39;;;;;;;12.93;5.53;;;11.70;99.90;;;;;;5140332;27;19953;-86
2021/12/31 12:24:23;;;;;;;;;;;11.60;99.90;;;;;;5156228;27;20064;-83
2021/12/31 12:27:07;;;;;;;8.77;5.40;;;11.60;99.90;;;;;;5155183;27;19980;-82
2021/12/31 12:29:53;;;;;;;12.55;5.88;;;11.60;99.90;;;;;;5155627;27;20393;-82
2021/12/31 12:32:52;;;;;;;12.07;6.07;;;11.60;99.90;;;;;;5155430;27;20046;-82
2021/12/31 12:35:40;;;;;;;13.85;6.28;;;11.50;99.90;;;;;;5155602;27;20064;-86
2021/12/31 12:38:29;;;;;;;13.70;6.18;;;11.50;99.90;;;;;;5155919;27;20042;-82
2021/12/31 12:41:14;;;;;;;15.90;6.85;;;11.50;99.90;;;;;;5139701;27;20519;-82
2021/12/31 12:43:58;;;;;;;10.60;6.65;;;11.50;99.90;;;;;;5139524;27;20439;-82
2021/12/31 12:47:09;;;;;;;9.43;6.00;;;11.50;99.90;;;;;;5136237;27;20498;-83
2021/12/31 12:49:58;;;;;;;11.38;6.65;;;11.50;99.90;;;;;;5139290;27;20077;-82
2021/12/31 12:52:52;;;;;;;8.50;6.10;;;11.50;99.90;;;;;;5155237;27;20183;-82
2021/12/31 12:55:37;;;;;;;9.10;5.75;;;11.50;99.90;;;;;;5139629;27;20434;-83
2021/12/31 12:58:24;;;;;;;10.38;5.60;;;11.50;99.90;;;;;;5154753;27;20090;-83
2021/12/31 13:01:08;;;;;;;8.15;4.30;;;11.50;99.90;;;;;;5154457;27;20081;-83
2021/12/31 13:03:55;;;;;;;8.75;4.47;;;11.50;99.90;;;;;;5154211;27;20037;-83
2021/12/31 13:06:42;;;;;;;9.73;4.57;;;11.50;99.90;;;;;;5139289;27;20048;-83
2021/12/31 13:09:30;;;;;;;8.98;4.57;;;11.50;99.90;;;;;;5138580;27;20044;-83
2021/12/31 13:12:19;;;;;;;8.43;4.80;;;11.50;99.90;;;;;;5134514;27;20049;-82
2021/12/31 13:15:04;;;;;;;11.15;4.55;;;11.50;99.90;;;;;;5151670;27;20568;-83
2021/12/31 13:18:06;;;;;;;8.93;4.30;;;11.40;99.90;;;;;;5149227;27;20038;-83
2021/12/31 13:20:59;;;;;;;8.57;4.43;;;11.40;99.90;;;;;;5152928;27;20037;-83
2021/12/31 13:23:54;;;;;;;11.70;4.88;;;11.40;99.90;;;;;;5145467;27;20083;-84
2021/12/31 13:26:38;;;;;;;10.38;5.60;;;11.40;99.90;;;;;;5153510;27;20543;-84
2021/12/31 13:29:34;;;;;;;8.35;5.03;;;11.40;99.90;;;;;;5136118;27;20046;-83
2021/12/31 13:32:19;;;;;;;9.52;4.35;;;11.50;99.90;;;;;;5146155;27;20451;-83
2021/12/31 13:35:06;;;;;;;5.80;3.53;;;11.40;99.90;;;;;;5137115;27;20045;-84
2021/12/31 13:38:00;;;;;;;7.13;4.32;;;11.40;99.90;;;;;;5134784;27;20066;-83
2021/12/31 13:40:50;;;;;;;10.20;3.70;;;11.40;99.90;;;;;;5153330;27;20041;-86
2021/12/31 13:43:36;;;;;;;12.57;3.90;;;11.40;99.90;;;;;;5153350;27;20095;-84
2021/12/31 13:46:40;;;;;;;9.90;5.10;;;11.40;99.90;;;;;;5136686;27;20052;-83
2021/12/31 13:49:25;;;;;;;12.65;4.80;;;11.40;99.90;;;;;;5151263;27;20050;-86
2021/12/31 13:52:26;;;;;;;13.48;5.03;;;11.40;99.90;;;;;;5129788;27;20389;-85
2021/12/31 13:55:20;;;;;;;11.40;5.10;;;11.40;99.90;;;;;;5151964;27;20061;-86
2021/12/31 13:58:06;;;;;;;15.07;5.50;;;11.40;99.90;;;;;;5154014;27;20034;-83
2021/12/31 14:00:51;;;;;;;16.92;5.90;;;11.40;99.90;;;;;;5150023;27;20029;-83
2021/12/31 14:03:35;;;;;;;;;;;11.40;99.90;;;;;;5142144;27;20517;-84
2021/12/31 14:06:19;;;;;;;31.17;14.35;;;11.40;99.90;;;;;;5157359;27;20374;-83
2021/12/31 14:09:03;;;;;;;;;;;11.40;99.90;;;;;;5158629;27;20501;-83
2021/12/31 14:11:48;;;;;;;17.13;7.47;;;11.40;99.90;;;;;;5158312;27;19917;-83
2021/12/31 14:14:32;;;;;;;15.02;7.30;;;11.40;99.90;;;;;;5142397;27;20069;-84
2021/12/31 14:17:17;;;;;;;21.02;7.82;;;11.30;99.90;;;;;;5142395;27;20111;-83
2021/12/31 14:20:01;;;;;;;21.73;7.15;;;11.40;99.90;;;;;;5142632;27;20076;-84
2021/12/31 14:22:45;;;;;;;;;;;11.40;99.90;;;;;;5158628;27;20038;-84
2021/12/31 14:25:31;;;;;;;19.38;7.80;;;11.40;99.90;;;;;;5157791;27;19914;-84
2021/12/31 14:28:15;;;;;;;16.88;6.45;;;11.40;99.90;;;;;;5158032;27;20041;-83
2021/12/31 14:31:00;;;;;;;15.13;5.60;;;11.40;99.90;;;;;;5157928;27;20077;-83
2021/12/31 14:33:44;;;;;;;;;;;11.40;99.90;;;;;;5158401;27;20069;-84